sensor_id;sensor_type;location;lat;lon;timestamp;P1;durP1;ratioP1;P2;durP2;ratioP2
48042;SDS011;33988;47.992;8.820;2023-10-13T00:00:40;6.00;;;3.85;;
48042;SDS011;33988;47.992;8.820;2023-10-13T00:03:09;6.03;;;4.10;;
48042;SDS011;33988;47.992;8.820;2023-10-13T00:05:45;6.05;;;3.75;;
48042;SDS011;33988;47.992;8.820;2023-10-13T00:08:18;6.07;;;3.70;;
48042;SDS011;33988;47.992;8.820;2023-10-13T00:10:46;5.65;;;3.35;;
48042;SDS011;33988;47.992;8.820;2023-10-13T00:13:14;5.43;;;3.72;;
48042;SDS011;33988;47.992;8.820;2023-10-13T00:15:43;5.50;;;3.58;;
48042;SDS011;33988;47.992;8.820;2023-10-13T00:21:01;4.78;;;3.42;;
48042;SDS011;33988;47.992;8.820;2023-10-13T00:23:47;5.35;;;3.60;;
48042;SDS011;33988;47.992;8.820;2023-10-13T00:26:21;6.43;;;3.55;;
48042;SDS011;33988;47.992;8.820;2023-10-13T00:28:51;6.50;;;3.72;;
48042;SDS011;33988;47.992;8.820;2023-10-13T00:31:25;5.07;;;3.17;;
48042;SDS011;33988;47.992;8.820;2023-10-13T00:34:02;6.20;;;3.38;;
48042;SDS011;33988;47.992;8.820;2023-10-13T00:36:45;7.88;;;4.00;;
48042;SDS011;33988;47.992;8.820;2023-10-13T00:39:36;4.05;;;2.97;;
48042;SDS011;33988;47.992;8.820;2023-10-13T00:42:06;6.65;;;3.47;;
48042;SDS011;33988;47.992;8.820;2023-10-13T00:44:34;5.65;;;3.38;;
48042;SDS011;33988;47.992;8.820;2023-10-13T00:47:08;5.55;;;3.40;;
48042;SDS011;33988;47.992;8.820;2023-10-13T00:49:36;7.13;;;3.67;;
48042;SDS011;33988;47.992;8.820;2023-10-13T00:52:06;5.15;;;3.30;;
48042;SDS011;33988;47.992;8.820;2023-10-13T00:54:36;5.28;;;3.50;;
48042;SDS011;33988;47.992;8.820;2023-10-13T00:57:05;5.95;;;3.40;;
48042;SDS011;33988;47.992;8.820;2023-10-13T00:59:41;4.70;;;3.67;;
48042;SDS011;33988;47.992;8.820;2023-10-13T01:02:12;6.28;;;3.25;;
48042;SDS011;33988;47.992;8.820;2023-10-13T01:04:58;6.43;;;3.28;;
48042;SDS011;33988;47.992;8.820;2023-10-13T01:07:25;5.55;;;3.15;;
48042;SDS011;33988;47.992;8.820;2023-10-13T01:09:52;3.67;;;2.95;;
48042;SDS011;33988;47.992;8.820;2023-10-13T01:12:19;5.63;;;3.03;;
48042;SDS011;33988;47.992;8.820;2023-10-13T01:14:51;4.45;;;3.10;;
48042;SDS011;33988;47.992;8.820;2023-10-13T01:17:33;4.90;;;3.10;;
48042;SDS011;33988;47.992;8.820;2023-10-13T01:20:03;5.53;;;2.75;;
48042;SDS011;33988;47.992;8.820;2023-10-13T01:22:32;4.53;;;3.00;;
48042;SDS011;33988;47.992;8.820;2023-10-13T01:25:02;5.03;;;3.17;;
48042;SDS011;33988;47.992;8.820;2023-10-13T01:30:07;4.70;;;2.63;;
48042;SDS011;33988;47.992;8.820;2023-10-13T01:32:40;9.00;;;3.15;;
48042;SDS011;33988;47.992;8.820;2023-10-13T01:35:12;3.83;;;2.85;;
48042;SDS011;33988;47.992;8.820;2023-10-13T01:37:38;7.55;;;3.13;;
48042;SDS011;33988;47.992;8.820;2023-10-13T01:40:11;7.97;;;3.08;;
48042;SDS011;33988;47.992;8.820;2023-10-13T01:42:42;4.50;;;2.78;;
48042;SDS011;33988;47.992;8.820;2023-10-13T01:45:12;3.83;;;3.13;;
48042;SDS011;33988;47.992;8.820;2023-10-13T01:47:40;4.25;;;3.20;;
48042;SDS011;33988;47.992;8.820;2023-10-13T01:50:10;7.28;;;3.22;;
48042;SDS011;33988;47.992;8.820;2023-10-13T01:52:56;5.97;;;3.13;;
48042;SDS011;33988;47.992;8.820;2023-10-13T01:55:52;7.07;;;3.20;;
48042;SDS011;33988;47.992;8.820;2023-10-13T01:58:23;4.43;;;2.80;;
48042;SDS011;33988;47.992;8.820;2023-10-13T02:03:26;3.55;;;2.15;;
48042;SDS011;33988;47.992;8.820;2023-10-13T02:05:56;8.50;;;2.90;;
48042;SDS011;33988;47.992;8.820;2023-10-13T02:08:30;5.43;;;3.15;;
48042;SDS011;33988;47.992;8.820;2023-10-13T02:11:06;5.63;;;3.47;;
48042;SDS011;33988;47.992;8.820;2023-10-13T02:13:35;5.13;;;3.17;;
48042;SDS011;33988;47.992;8.820;2023-10-13T02:16:14;4.00;;;2.47;;
48042;SDS011;33988;47.992;8.820;2023-10-13T02:18:45;4.22;;;3.22;;
48042;SDS011;33988;47.992;8.820;2023-10-13T02:21:17;5.03;;;2.90;;
48042;SDS011;33988;47.992;8.820;2023-10-13T02:23:44;6.35;;;3.33;;
48042;SDS011;33988;47.992;8.820;2023-10-13T02:29:05;2.92;;;2.30;;
48042;SDS011;33988;47.992;8.820;2023-10-13T02:31:39;3.42;;;2.63;;
48042;SDS011;33988;47.992;8.820;2023-10-13T02:34:09;3.55;;;2.70;;
48042;SDS011;33988;47.992;8.820;2023-10-13T02:36:40;4.22;;;2.83;;
48042;SDS011;33988;47.992;8.820;2023-10-13T02:39:15;4.40;;;3.03;;
48042;SDS011;33988;47.992;8.820;2023-10-13T02:41:43;3.28;;;2.80;;
48042;SDS011;33988;47.992;8.820;2023-10-13T02:46:57;3.20;;;2.55;;
48042;SDS011;33988;47.992;8.820;2023-10-13T02:49:26;4.63;;;2.90;;
48042;SDS011;33988;47.992;8.820;2023-10-13T02:51:57;4.57;;;2.90;;
48042;SDS011;33988;47.992;8.820;2023-10-13T02:54:32;6.13;;;2.80;;
48042;SDS011;33988;47.992;8.820;2023-10-13T02:57:05;3.65;;;2.55;;
48042;SDS011;33988;47.992;8.820;2023-10-13T02:59:35;3.58;;;2.63;;
48042;SDS011;33988;47.992;8.820;2023-10-13T03:02:09;3.30;;;2.38;;
48042;SDS011;33988;47.992;8.820;2023-10-13T03:04:50;5.43;;;2.72;;
48042;SDS011;33988;47.992;8.820;2023-10-13T03:07:35;4.15;;;2.45;;
48042;SDS011;33988;47.992;8.820;2023-10-13T03:10:03;5.97;;;3.88;;
48042;SDS011;33988;47.992;8.820;2023-10-13T03:12:40;5.03;;;2.50;;
48042;SDS011;33988;47.992;8.820;2023-10-13T03:15:14;6.20;;;3.13;;
48042;SDS011;33988;47.992;8.820;2023-10-13T03:17:49;4.18;;;3.00;;
48042;SDS011;33988;47.992;8.820;2023-10-13T03:20:17;4.10;;;2.85;;
48042;SDS011;33988;47.992;8.820;2023-10-13T03:22:53;4.57;;;2.67;;
48042;SDS011;33988;47.992;8.820;2023-10-13T03:25:20;5.65;;;3.63;;
48042;SDS011;33988;47.992;8.820;2023-10-13T03:27:55;6.55;;;3.03;;
48042;SDS011;33988;47.992;8.820;2023-10-13T03:30:27;3.95;;;2.70;;
48042;SDS011;33988;47.992;8.820;2023-10-13T03:33:05;7.25;;;2.88;;
48042;SDS011;33988;47.992;8.820;2023-10-13T03:35:36;4.95;;;2.65;;
48042;SDS011;33988;47.992;8.820;2023-10-13T03:38:07;3.47;;;2.55;;
48042;SDS011;33988;47.992;8.820;2023-10-13T03:40:45;5.28;;;2.60;;
48042;SDS011;33988;47.992;8.820;2023-10-13T03:43:22;5.38;;;3.47;;
48042;SDS011;33988;47.992;8.820;2023-10-13T03:45:51;4.43;;;2.85;;
48042;SDS011;33988;47.992;8.820;2023-10-13T03:48:27;6.65;;;2.60;;
48042;SDS011;33988;47.992;8.820;2023-10-13T03:50:59;5.88;;;3.03;;
48042;SDS011;33988;47.992;8.820;2023-10-13T03:53:33;4.70;;;2.90;;
48042;SDS011;33988;47.992;8.820;2023-10-13T03:56:05;4.60;;;2.63;;
48042;SDS011;33988;47.992;8.820;2023-10-13T03:58:41;5.18;;;3.10;;
48042;SDS011;33988;47.992;8.820;2023-10-13T04:01:14;4.00;;;3.03;;
48042;SDS011;33988;47.992;8.820;2023-10-13T04:03:45;5.07;;;3.05;;
48042;SDS011;33988;47.992;8.820;2023-10-13T04:06:31;4.90;;;2.95;;
48042;SDS011;33988;47.992;8.820;2023-10-13T04:09:21;4.07;;;2.60;;
48042;SDS011;33988;47.992;8.820;2023-10-13T04:12:09;4.28;;;2.90;;
48042;SDS011;33988;47.992;8.820;2023-10-13T04:14:39;4.60;;;2.88;;
48042;SDS011;33988;47.992;8.820;2023-10-13T04:17:29;4.25;;;2.38;;
48042;SDS011;33988;47.992;8.820;2023-10-13T04:20:00;5.65;;;4.05;;
48042;SDS011;33988;47.992;8.820;2023-10-13T04:22:32;6.05;;;3.40;;
48042;SDS011;33988;47.992;8.820;2023-10-13T04:25:18;5.32;;;2.92;;
48042;SDS011;33988;47.992;8.820;2023-10-13T04:28:08;3.67;;;2.70;;
48042;SDS011;33988;47.992;8.820;2023-10-13T04:30:41;5.85;;;2.83;;
48042;SDS011;33988;47.992;8.820;2023-10-13T04:33:21;8.18;;;3.13;;
48042;SDS011;33988;47.992;8.820;2023-10-13T04:36:04;5.40;;;3.33;;
48042;SDS011;33988;47.992;8.820;2023-10-13T04:38:54;4.45;;;3.17;;
48042;SDS011;33988;47.992;8.820;2023-10-13T04:44:12;4.30;;;3.28;;
48042;SDS011;33988;47.992;8.820;2023-10-13T04:47:00;5.80;;;3.28;;
48042;SDS011;33988;47.992;8.820;2023-10-13T04:49:28;6.40;;;3.67;;
48042;SDS011;33988;47.992;8.820;2023-10-13T04:52:02;6.45;;;3.70;;
48042;SDS011;33988;47.992;8.820;2023-10-13T04:54:38;5.10;;;3.45;;
48042;SDS011;33988;47.992;8.820;2023-10-13T04:57:14;7.10;;;3.67;;
48042;SDS011;33988;47.992;8.820;2023-10-13T05:00:08;6.80;;;3.72;;
48042;SDS011;33988;47.992;8.820;2023-10-13T05:05:22;5.80;;;3.30;;
48042;SDS011;33988;47.992;8.820;2023-10-13T05:07:52;5.55;;;3.45;;
48042;SDS011;33988;47.992;8.820;2023-10-13T05:10:43;5.03;;;3.70;;
48042;SDS011;33988;47.992;8.820;2023-10-13T05:13:28;7.68;;;2.90;;
48042;SDS011;33988;47.992;8.820;2023-10-13T05:16:16;4.13;;;3.05;;
48042;SDS011;33988;47.992;8.820;2023-10-13T05:19:02;5.18;;;3.40;;
48042;SDS011;33988;47.992;8.820;2023-10-13T05:21:48;6.88;;;3.05;;
48042;SDS011;33988;47.992;8.820;2023-10-13T05:24:36;4.30;;;3.15;;
48042;SDS011;33988;47.992;8.820;2023-10-13T05:27:22;6.75;;;3.20;;
48042;SDS011;33988;47.992;8.820;2023-10-13T05:30:07;6.22;;;3.05;;
48042;SDS011;33988;47.992;8.820;2023-10-13T05:32:53;6.65;;;3.90;;
48042;SDS011;33988;47.992;8.820;2023-10-13T05:35:46;7.45;;;3.28;;
48042;SDS011;33988;47.992;8.820;2023-10-13T05:38:34;6.38;;;3.30;;
48042;SDS011;33988;47.992;8.820;2023-10-13T05:41:22;6.43;;;2.95;;
48042;SDS011;33988;47.992;8.820;2023-10-13T05:44:10;4.45;;;2.83;;
48042;SDS011;33988;47.992;8.820;2023-10-13T05:46:56;4.90;;;3.22;;
48042;SDS011;33988;47.992;8.820;2023-10-13T05:49:41;6.35;;;3.22;;
48042;SDS011;33988;47.992;8.820;2023-10-13T05:52:16;7.32;;;3.42;;
48042;SDS011;33988;47.992;8.820;2023-10-13T05:55:06;4.32;;;3.28;;
48042;SDS011;33988;47.992;8.820;2023-10-13T05:57:54;5.70;;;3.80;;
48042;SDS011;33988;47.992;8.820;2023-10-13T06:00:41;5.57;;;3.90;;
48042;SDS011;33988;47.992;8.820;2023-10-13T06:03:26;5.93;;;4.28;;
48042;SDS011;33988;47.992;8.820;2023-10-13T06:06:14;7.85;;;3.95;;
48042;SDS011;33988;47.992;8.820;2023-10-13T06:08:59;7.03;;;3.40;;
48042;SDS011;33988;47.992;8.820;2023-10-13T06:11:48;5.93;;;3.47;;
48042;SDS011;33988;47.992;8.820;2023-10-13T06:14:33;5.57;;;3.72;;
48042;SDS011;33988;47.992;8.820;2023-10-13T06:17:19;7.03;;;3.30;;
48042;SDS011;33988;47.992;8.820;2023-10-13T06:20:04;6.22;;;3.45;;
48042;SDS011;33988;47.992;8.820;2023-10-13T06:22:51;5.60;;;3.38;;
48042;SDS011;33988;47.992;8.820;2023-10-13T06:25:37;6.60;;;3.85;;
48042;SDS011;33988;47.992;8.820;2023-10-13T06:28:23;5.78;;;3.45;;
48042;SDS011;33988;47.992;8.820;2023-10-13T06:31:12;7.28;;;3.20;;
48042;SDS011;33988;47.992;8.820;2023-10-13T06:33:49;5.53;;;3.70;;
48042;SDS011;33988;47.992;8.820;2023-10-13T06:36:22;6.45;;;3.65;;
48042;SDS011;33988;47.992;8.820;2023-10-13T06:38:52;6.47;;;3.60;;
48042;SDS011;33988;47.992;8.820;2023-10-13T06:41:22;7.00;;;3.47;;
48042;SDS011;33988;47.992;8.820;2023-10-13T06:43:58;6.80;;;3.67;;
48042;SDS011;33988;47.992;8.820;2023-10-13T06:46:31;6.60;;;3.40;;
48042;SDS011;33988;47.992;8.820;2023-10-13T06:49:03;5.82;;;3.72;;
48042;SDS011;33988;47.992;8.820;2023-10-13T06:51:35;6.22;;;3.38;;
48042;SDS011;33988;47.992;8.820;2023-10-13T06:54:06;7.13;;;3.60;;
48042;SDS011;33988;47.992;8.820;2023-10-13T06:56:49;7.60;;;3.87;;
48042;SDS011;33988;47.992;8.820;2023-10-13T06:59:19;5.72;;;3.80;;
48042;SDS011;33988;47.992;8.820;2023-10-13T07:01:52;8.23;;;4.40;;
48042;SDS011;33988;47.992;8.820;2023-10-13T07:04:20;8.35;;;3.80;;
48042;SDS011;33988;47.992;8.820;2023-10-13T07:06:48;7.32;;;3.92;;
48042;SDS011;33988;47.992;8.820;2023-10-13T07:09:16;7.35;;;3.97;;
48042;SDS011;33988;47.992;8.820;2023-10-13T07:12:02;7.90;;;3.30;;
48042;SDS011;33988;47.992;8.820;2023-10-13T07:14:34;6.53;;;3.50;;
48042;SDS011;33988;47.992;8.820;2023-10-13T07:17:03;9.93;;;4.38;;
48042;SDS011;33988;47.992;8.820;2023-10-13T07:19:32;8.55;;;3.67;;
48042;SDS011;33988;47.992;8.820;2023-10-13T07:22:19;12.30;;;4.50;;
48042;SDS011;33988;47.992;8.820;2023-10-13T07:24:47;12.32;;;4.88;;
48042;SDS011;33988;47.992;8.820;2023-10-13T07:27:19;8.90;;;4.10;;
48042;SDS011;33988;47.992;8.820;2023-10-13T07:29:53;8.25;;;4.75;;
48042;SDS011;33988;47.992;8.820;2023-10-13T07:32:40;7.95;;;4.72;;
48042;SDS011;33988;47.992;8.820;2023-10-13T07:35:18;13.55;;;5.45;;
48042;SDS011;33988;47.992;8.820;2023-10-13T07:37:51;8.00;;;5.13;;
48042;SDS011;33988;47.992;8.820;2023-10-13T07:40:21;13.23;;;5.60;;
48042;SDS011;33988;47.992;8.820;2023-10-13T07:42:55;10.32;;;5.20;;
48042;SDS011;33988;47.992;8.820;2023-10-13T07:45:38;10.27;;;4.88;;
48042;SDS011;33988;47.992;8.820;2023-10-13T07:48:11;8.43;;;4.95;;
48042;SDS011;33988;47.992;8.820;2023-10-13T07:50:43;11.27;;;5.55;;
48042;SDS011;33988;47.992;8.820;2023-10-13T07:53:12;12.75;;;4.75;;
48042;SDS011;33988;47.992;8.820;2023-10-13T07:55:50;14.30;;;4.93;;
48042;SDS011;33988;47.992;8.820;2023-10-13T07:58:29;10.57;;;4.97;;
48042;SDS011;33988;47.992;8.820;2023-10-13T08:00:59;10.55;;;4.65;;
48042;SDS011;33988;47.992;8.820;2023-10-13T08:03:35;9.15;;;5.07;;
48042;SDS011;33988;47.992;8.820;2023-10-13T08:06:12;8.13;;;4.80;;
48042;SDS011;33988;47.992;8.820;2023-10-13T08:08:47;11.38;;;5.05;;
48042;SDS011;33988;47.992;8.820;2023-10-13T08:11:20;9.35;;;5.25;;
48042;SDS011;33988;47.992;8.820;2023-10-13T08:17:00;9.38;;;5.53;;
48042;SDS011;33988;47.992;8.820;2023-10-13T08:19:28;9.60;;;5.57;;
48042;SDS011;33988;47.992;8.820;2023-10-13T08:22:06;6.90;;;4.57;;
48042;SDS011;33988;47.992;8.820;2023-10-13T08:24:41;8.95;;;4.93;;
48042;SDS011;33988;47.992;8.820;2023-10-13T08:27:08;10.02;;;5.13;;
48042;SDS011;33988;47.992;8.820;2023-10-13T08:29:41;7.03;;;4.60;;
48042;SDS011;33988;47.992;8.820;2023-10-13T08:34:53;11.93;;;4.60;;
48042;SDS011;33988;47.992;8.820;2023-10-13T08:37:21;10.20;;;5.00;;
48042;SDS011;33988;47.992;8.820;2023-10-13T08:39:49;11.57;;;4.78;;
48042;SDS011;33988;47.992;8.820;2023-10-13T08:42:49;9.05;;;4.63;;
48042;SDS011;33988;47.992;8.820;2023-10-13T08:45:30;10.20;;;4.72;;
48042;SDS011;33988;47.992;8.820;2023-10-13T08:48:02;15.60;;;5.25;;
48042;SDS011;33988;47.992;8.820;2023-10-13T08:50:35;6.95;;;4.90;;
48042;SDS011;33988;47.992;8.820;2023-10-13T08:53:30;7.20;;;4.68;;
48042;SDS011;33988;47.992;8.820;2023-10-13T08:56:11;10.18;;;5.15;;
48042;SDS011;33988;47.992;8.820;2023-10-13T08:58:45;8.52;;;5.18;;
48042;SDS011;33988;47.992;8.820;2023-10-13T09:04:16;11.35;;;4.90;;
48042;SDS011;33988;47.992;8.820;2023-10-13T09:07:04;10.45;;;5.18;;
48042;SDS011;33988;47.992;8.820;2023-10-13T09:09:53;6.85;;;4.40;;
48042;SDS011;33988;47.992;8.820;2023-10-13T09:12:24;10.38;;;4.68;;
48042;SDS011;33988;47.992;8.820;2023-10-13T09:15:01;10.25;;;4.22;;
48042;SDS011;33988;47.992;8.820;2023-10-13T09:17:41;7.88;;;3.95;;
48042;SDS011;33988;47.992;8.820;2023-10-13T09:23:10;4.80;;;3.10;;
48042;SDS011;33988;47.992;8.820;2023-10-13T09:25:53;7.82;;;3.40;;
48042;SDS011;33988;47.992;8.820;2023-10-13T09:28:27;10.93;;;3.03;;
48042;SDS011;33988;47.992;8.820;2023-10-13T09:30:57;8.57;;;3.50;;
48042;SDS011;33988;47.992;8.820;2023-10-13T09:33:25;6.85;;;3.33;;
48042;SDS011;33988;47.992;8.820;2023-10-13T09:36:13;5.70;;;2.90;;
48042;SDS011;33988;47.992;8.820;2023-10-13T09:38:43;5.22;;;3.10;;
48042;SDS011;33988;47.992;8.820;2023-10-13T09:41:36;4.90;;;3.10;;
48042;SDS011;33988;47.992;8.820;2023-10-13T09:44:06;6.37;;;3.13;;
48042;SDS011;33988;47.992;8.820;2023-10-13T09:46:37;6.38;;;3.28;;
48042;SDS011;33988;47.992;8.820;2023-10-13T09:49:14;11.45;;;5.13;;
48042;SDS011;33988;47.992;8.820;2023-10-13T09:52:03;12.57;;;4.53;;
48042;SDS011;33988;47.992;8.820;2023-10-13T09:54:37;7.32;;;4.15;;
48042;SDS011;33988;47.992;8.820;2023-10-13T09:59:51;4.88;;;2.67;;
48042;SDS011;33988;47.992;8.820;2023-10-13T10:02:34;11.95;;;2.50;;
48042;SDS011;33988;47.992;8.820;2023-10-13T10:05:09;4.93;;;2.13;;
48042;SDS011;33988;47.992;8.820;2023-10-13T10:07:57;3.78;;;2.13;;
48042;SDS011;33988;47.992;8.820;2023-10-13T10:10:47;4.80;;;2.05;;
48042;SDS011;33988;47.992;8.820;2023-10-13T10:13:35;5.40;;;2.10;;
48042;SDS011;33988;47.992;8.820;2023-10-13T10:16:29;6.65;;;1.95;;
48042;SDS011;33988;47.992;8.820;2023-10-13T10:22:26;4.35;;;2.08;;
48042;SDS011;33988;47.992;8.820;2023-10-13T10:25:02;6.60;;;2.40;;
48042;SDS011;33988;47.992;8.820;2023-10-13T10:27:42;4.65;;;2.20;;
48042;SDS011;33988;47.992;8.820;2023-10-13T10:30:12;4.57;;;1.92;;
48042;SDS011;33988;47.992;8.820;2023-10-13T10:32:56;3.38;;;1.77;;
48042;SDS011;33988;47.992;8.820;2023-10-13T10:35:27;4.53;;;1.80;;
48042;SDS011;33988;47.992;8.820;2023-10-13T10:38:09;4.53;;;2.45;;
48042;SDS011;33988;47.992;8.820;2023-10-13T10:43:36;5.90;;;2.22;;
48042;SDS011;33988;47.992;8.820;2023-10-13T10:46:25;5.30;;;2.05;;
48042;SDS011;33988;47.992;8.820;2023-10-13T10:49:04;5.70;;;2.08;;
48042;SDS011;33988;47.992;8.820;2023-10-13T10:51:31;3.17;;;2.00;;
48042;SDS011;33988;47.992;8.820;2023-10-13T10:54:19;4.70;;;2.15;;
48042;SDS011;33988;47.992;8.820;2023-10-13T10:56:48;5.28;;;2.33;;
48042;SDS011;33988;47.992;8.820;2023-10-13T10:59:19;7.23;;;2.13;;
48042;SDS011;33988;47.992;8.820;2023-10-13T11:01:48;4.38;;;1.88;;
48042;SDS011;33988;47.992;8.820;2023-10-13T11:04:20;4.50;;;2.08;;
48042;SDS011;33988;47.992;8.820;2023-10-13T11:09:24;3.55;;;2.05;;
48042;SDS011;33988;47.992;8.820;2023-10-13T11:11:54;11.05;;;2.88;;
48042;SDS011;33988;47.992;8.820;2023-10-13T11:14:27;5.57;;;2.03;;
48042;SDS011;33988;47.992;8.820;2023-10-13T11:16:57;3.75;;;1.80;;
48042;SDS011;33988;47.992;8.820;2023-10-13T11:19:34;3.33;;;1.73;;
48042;SDS011;33988;47.992;8.820;2023-10-13T11:22:15;2.53;;;1.77;;
48042;SDS011;33988;47.992;8.820;2023-10-13T11:24:56;4.15;;;1.70;;
48042;SDS011;33988;47.992;8.820;2023-10-13T11:27:30;7.05;;;2.60;;
48042;SDS011;33988;47.992;8.820;2023-10-13T11:30:15;4.78;;;1.98;;
48042;SDS011;33988;47.992;8.820;2023-10-13T11:35:45;4.65;;;2.00;;
48042;SDS011;33988;47.992;8.820;2023-10-13T11:38:15;3.80;;;2.40;;
48042;SDS011;33988;47.992;8.820;2023-10-13T11:41:04;6.95;;;2.67;;
48042;SDS011;33988;47.992;8.820;2023-10-13T11:43:48;3.28;;;2.10;;
48042;SDS011;33988;47.992;8.820;2023-10-13T11:49:03;3.63;;;2.00;;
48042;SDS011;33988;47.992;8.820;2023-10-13T11:52:00;3.13;;;1.92;;
48042;SDS011;33988;47.992;8.820;2023-10-13T11:54:43;3.67;;;2.15;;
48042;SDS011;33988;47.992;8.820;2023-10-13T11:57:10;4.05;;;2.00;;
48042;SDS011;33988;47.992;8.820;2023-10-13T11:59:45;5.20;;;2.50;;
48042;SDS011;33988;47.992;8.820;2023-10-13T12:02:20;4.38;;;2.03;;
48042;SDS011;33988;47.992;8.820;2023-10-13T12:04:54;3.80;;;2.25;;
48042;SDS011;33988;47.992;8.820;2023-10-13T12:07:24;3.20;;;1.85;;
48042;SDS011;33988;47.992;8.820;2023-10-13T12:10:12;6.65;;;1.83;;
48042;SDS011;33988;47.992;8.820;2023-10-13T12:12:47;4.63;;;2.38;;
48042;SDS011;33988;47.992;8.820;2023-10-13T12:15:19;3.60;;;2.15;;
48042;SDS011;33988;47.992;8.820;2023-10-13T12:17:52;4.97;;;2.10;;
48042;SDS011;33988;47.992;8.820;2023-10-13T12:20:24;4.43;;;2.00;;
48042;SDS011;33988;47.992;8.820;2023-10-13T12:23:02;3.45;;;1.92;;
48042;SDS011;33988;47.992;8.820;2023-10-13T12:25:44;5.20;;;1.95;;
48042;SDS011;33988;47.992;8.820;2023-10-13T12:28:24;3.35;;;2.35;;
48042;SDS011;33988;47.992;8.820;2023-10-13T12:30:55;3.22;;;1.92;;
48042;SDS011;33988;47.992;8.820;2023-10-13T12:33:32;7.70;;;2.45;;
48042;SDS011;33988;47.992;8.820;2023-10-13T12:36:07;3.33;;;2.25;;
48042;SDS011;33988;47.992;8.820;2023-10-13T12:38:53;3.70;;;2.05;;
48042;SDS011;33988;47.992;8.820;2023-10-13T12:41:35;4.15;;;2.35;;
48042;SDS011;33988;47.992;8.820;2023-10-13T12:44:25;2.92;;;1.98;;
48042;SDS011;33988;47.992;8.820;2023-10-13T12:47:14;3.63;;;1.83;;
48042;SDS011;33988;47.992;8.820;2023-10-13T12:50:02;5.15;;;2.13;;
48042;SDS011;33988;47.992;8.820;2023-10-13T12:52:50;3.88;;;1.77;;
48042;SDS011;33988;47.992;8.820;2023-10-13T12:55:17;3.95;;;2.25;;
48042;SDS011;33988;47.992;8.820;2023-10-13T12:57:51;5.63;;;2.20;;
48042;SDS011;33988;47.992;8.820;2023-10-13T13:00:18;5.60;;;2.03;;
48042;SDS011;33988;47.992;8.820;2023-10-13T13:02:51;3.47;;;1.90;;
48042;SDS011;33988;47.992;8.820;2023-10-13T13:05:22;5.80;;;2.35;;
48042;SDS011;33988;47.992;8.820;2023-10-13T13:07:55;2.67;;;2.10;;
48042;SDS011;33988;47.992;8.820;2023-10-13T13:10:24;5.03;;;2.20;;
48042;SDS011;33988;47.992;8.820;2023-10-13T13:13:08;2.53;;;2.20;;
48042;SDS011;33988;47.992;8.820;2023-10-13T13:15:36;6.78;;;2.58;;
48042;SDS011;33988;47.992;8.820;2023-10-13T13:18:03;2.85;;;1.77;;
48042;SDS011;33988;47.992;8.820;2023-10-13T13:20:39;3.67;;;2.08;;
48042;SDS011;33988;47.992;8.820;2023-10-13T13:23:09;7.45;;;2.13;;
48042;SDS011;33988;47.992;8.820;2023-10-13T13:25:44;3.35;;;1.73;;
48042;SDS011;33988;47.992;8.820;2023-10-13T13:28:12;4.50;;;2.47;;
48042;SDS011;33988;47.992;8.820;2023-10-13T13:30:40;4.57;;;2.30;;
48042;SDS011;33988;47.992;8.820;2023-10-13T13:33:08;5.25;;;2.40;;
48042;SDS011;33988;47.992;8.820;2023-10-13T13:35:40;3.72;;;2.20;;
48042;SDS011;33988;47.992;8.820;2023-10-13T13:38:10;3.15;;;2.00;;
48042;SDS011;33988;47.992;8.820;2023-10-13T13:40:43;3.47;;;1.88;;
48042;SDS011;33988;47.992;8.820;2023-10-13T13:43:16;3.65;;;2.05;;
48042;SDS011;33988;47.992;8.820;2023-10-13T13:46:04;4.82;;;2.17;;
48042;SDS011;33988;47.992;8.820;2023-10-13T13:48:38;3.90;;;2.42;;
48042;SDS011;33988;47.992;8.820;2023-10-13T13:51:07;3.15;;;1.95;;
48042;SDS011;33988;47.992;8.820;2023-10-13T13:53:45;2.70;;;1.88;;
48042;SDS011;33988;47.992;8.820;2023-10-13T13:56:15;3.80;;;2.03;;
48042;SDS011;33988;47.992;8.820;2023-10-13T14:01:14;3.65;;;2.15;;
48042;SDS011;33988;47.992;8.820;2023-10-13T14:03:47;2.22;;;1.88;;
48042;SDS011;33988;47.992;8.820;2023-10-13T14:06:17;2.20;;;1.83;;
48042;SDS011;33988;47.992;8.820;2023-10-13T14:08:50;4.93;;;2.10;;
48042;SDS011;33988;47.992;8.820;2023-10-13T14:11:22;5.78;;;2.10;;
48042;SDS011;33988;47.992;8.820;2023-10-13T14:17:07;2.50;;;1.63;;
48042;SDS011;33988;47.992;8.820;2023-10-13T14:19:38;3.65;;;2.40;;
48042;SDS011;33988;47.992;8.820;2023-10-13T14:22:14;3.88;;;2.53;;
48042;SDS011;33988;47.992;8.820;2023-10-13T14:24:41;4.35;;;1.80;;
48042;SDS011;33988;47.992;8.820;2023-10-13T14:27:14;8.73;;;2.30;;
48042;SDS011;33988;47.992;8.820;2023-10-13T14:29:49;2.38;;;1.88;;
48042;SDS011;33988;47.992;8.820;2023-10-13T14:32:19;2.73;;;1.93;;
48042;SDS011;33988;47.992;8.820;2023-10-13T14:34:51;8.13;;;2.70;;
48042;SDS011;33988;47.992;8.820;2023-10-13T14:37:21;3.45;;;2.30;;
48042;SDS011;33988;47.992;8.820;2023-10-13T14:39:58;4.13;;;1.58;;
48042;SDS011;33988;47.992;8.820;2023-10-13T14:42:27;4.50;;;1.70;;
48042;SDS011;33988;47.992;8.820;2023-10-13T14:45:02;4.60;;;1.88;;
48042;SDS011;33988;47.992;8.820;2023-10-13T14:47:41;3.00;;;1.83;;
48042;SDS011;33988;47.992;8.820;2023-10-13T14:50:12;2.70;;;2.00;;
48042;SDS011;33988;47.992;8.820;2023-10-13T14:52:49;2.33;;;2.10;;
48042;SDS011;33988;47.992;8.820;2023-10-13T14:55:17;4.85;;;2.10;;
48042;SDS011;33988;47.992;8.820;2023-10-13T14:57:46;5.50;;;2.60;;
48042;SDS011;33988;47.992;8.820;2023-10-13T15:00:19;7.07;;;2.25;;
48042;SDS011;33988;47.992;8.820;2023-10-13T15:02:52;3.30;;;1.92;;
48042;SDS011;33988;47.992;8.820;2023-10-13T15:05:21;5.38;;;2.00;;
48042;SDS011;33988;47.992;8.820;2023-10-13T15:07:53;3.40;;;2.05;;
48042;SDS011;33988;47.992;8.820;2023-10-13T15:10:25;9.03;;;2.03;;
48042;SDS011;33988;47.992;8.820;2023-10-13T15:12:54;4.00;;;2.03;;
48042;SDS011;33988;47.992;8.820;2023-10-13T15:15:21;6.13;;;2.63;;
48042;SDS011;33988;47.992;8.820;2023-10-13T15:17:49;6.50;;;1.63;;
48042;SDS011;33988;47.992;8.820;2023-10-13T15:20:17;3.10;;;1.90;;
48042;SDS011;33988;47.992;8.820;2023-10-13T15:22:44;6.15;;;2.13;;
48042;SDS011;33988;47.992;8.820;2023-10-13T15:25:15;2.80;;;1.80;;
48042;SDS011;33988;47.992;8.820;2023-10-13T15:27:58;3.50;;;1.52;;
48042;SDS011;33988;47.992;8.820;2023-10-13T15:30:33;4.93;;;2.10;;
48042;SDS011;33988;47.992;8.820;2023-10-13T15:35:51;2.45;;;1.67;;
48042;SDS011;33988;47.992;8.820;2023-10-13T15:38:18;4.25;;;1.73;;
48042;SDS011;33988;47.992;8.820;2023-10-13T15:40:51;3.38;;;1.73;;
48042;SDS011;33988;47.992;8.820;2023-10-13T15:43:21;3.08;;;2.10;;
48042;SDS011;33988;47.992;8.820;2023-10-13T15:45:48;2.70;;;1.90;;
48042;SDS011;33988;47.992;8.820;2023-10-13T15:48:15;2.25;;;1.85;;
48042;SDS011;33988;47.992;8.820;2023-10-13T15:50:45;3.17;;;2.13;;
48042;SDS011;33988;47.992;8.820;2023-10-13T15:53:16;3.00;;;2.17;;
48042;SDS011;33988;47.992;8.820;2023-10-13T15:55:43;5.15;;;2.20;;
48042;SDS011;33988;47.992;8.820;2023-10-13T15:58:12;5.30;;;1.90;;
48042;SDS011;33988;47.992;8.820;2023-10-13T16:00:40;3.33;;;2.00;;
48042;SDS011;33988;47.992;8.820;2023-10-13T16:03:09;8.80;;;1.90;;
48042;SDS011;33988;47.992;8.820;2023-10-13T16:05:40;7.07;;;2.50;;
48042;SDS011;33988;47.992;8.820;2023-10-13T16:08:12;2.70;;;1.80;;
48042;SDS011;33988;47.992;8.820;2023-10-13T16:10:40;4.25;;;1.95;;
48042;SDS011;33988;47.992;8.820;2023-10-13T16:13:07;5.47;;;2.00;;
48042;SDS011;33988;47.992;8.820;2023-10-13T16:15:43;4.65;;;2.40;;
48042;SDS011;33988;47.992;8.820;2023-10-13T16:18:14;4.43;;;2.17;;
48042;SDS011;33988;47.992;8.820;2023-10-13T16:20:49;2.28;;;1.85;;
48042;SDS011;33988;47.992;8.820;2023-10-13T16:23:17;4.50;;;2.35;;
48042;SDS011;33988;47.992;8.820;2023-10-13T16:25:44;6.18;;;2.60;;
48042;SDS011;33988;47.992;8.820;2023-10-13T16:28:14;5.68;;;2.67;;
48042;SDS011;33988;47.992;8.820;2023-10-13T16:30:41;3.67;;;2.30;;